createdAt,value
2017-08-10T00:02:00.162Z,91.20
2017-08-10T00:04:30.694Z,90.60
2017-08-10T00:07:01.185Z,90.10
2017-08-10T00:09:31.722Z,90.00
2017-08-10T00:12:02.284Z,89.20
2017-08-10T00:14:32.722Z,88.40
2017-08-10T00:17:03.190Z,88.00
2017-08-10T00:19:33.786Z,87.60
2017-08-10T00:22:10.006Z,87.50
2017-08-10T00:24:40.659Z,87.50
2017-08-10T00:27:11.134Z,87.00
2017-08-10T00:29:41.534Z,86.20
2017-08-10T00:32:11.942Z,85.70
2017-08-10T00:34:42.424Z,85.70
2017-08-10T00:37:12.975Z,84.90
2017-08-10T00:39:44.144Z,81.80
2017-08-10T00:42:14.693Z,81.70
2017-08-10T00:44:45.139Z,79.20
2017-08-10T00:47:16.109Z,79.10
2017-08-10T00:49:46.532Z,79.40
2017-08-10T00:52:16.961Z,77.60
2017-08-10T00:54:47.306Z,77.30
2017-08-10T00:57:18.705Z,77.70
2017-08-10T00:59:49.051Z,77.60
2017-08-10T01:02:19.545Z,76.10
2017-08-10T01:04:49.887Z,76.90
2017-08-10T01:07:20.468Z,77.10
2017-08-10T01:09:51.577Z,77.10
2017-08-10T01:12:21.954Z,76.70
2017-08-10T01:14:53.139Z,73.00
2017-08-10T01:17:23.737Z,72.90
2017-08-10T01:19:54.036Z,71.10
2017-08-10T01:22:24.546Z,70.10
2017-08-10T01:24:55.053Z,70.20
2017-08-10T01:27:25.513Z,71.20
2017-08-10T01:29:56.027Z,71.30
2017-08-10T01:32:26.602Z,71.10
2017-08-10T01:34:57.834Z,71.60
2017-08-10T01:37:28.289Z,71.60
2017-08-10T01:39:59.069Z,71.50
2017-08-10T01:42:29.494Z,71.30
2017-08-10T01:44:59.919Z,70.30
2017-08-10T01:47:30.669Z,69.30
2017-08-10T01:50:01.155Z,68.10
2017-08-10T01:52:31.775Z,66.80
2017-08-10T01:55:02.978Z,65.40
2017-08-10T01:57:33.378Z,65.40
2017-08-10T02:00:03.890Z,65.20
2017-08-10T02:02:36.759Z,64.80
2017-08-10T02:05:08.055Z,63.80
2017-08-10T02:07:38.655Z,63.70
2017-08-10T02:10:09.184Z,63.60
2017-08-10T02:12:39.721Z,64.20
2017-08-10T02:15:10.154Z,64.40
2017-08-10T02:17:40.797Z,65.20
2017-08-10T02:20:11.434Z,65.00
2017-08-10T02:22:41.866Z,65.20
2017-08-10T02:25:12.272Z,65.00
2017-08-10T02:27:42.703Z,65.40
2017-08-10T02:30:13.175Z,65.80
2017-08-10T02:32:43.665Z,66.00
2017-08-10T02:35:14.277Z,65.90
2017-08-10T02:37:45.442Z,66.90
2017-08-10T02:40:16.008Z,66.90
2017-08-10T02:42:46.511Z,67.20
2017-08-10T02:45:17.067Z,66.90
2017-08-10T02:47:47.868Z,66.80
2017-08-10T02:50:18.501Z,66.80
2017-08-10T02:52:49.132Z,66.40
2017-08-10T02:55:19.696Z,66.50
2017-08-10T02:57:50.177Z,66.40
2017-08-10T03:00:21.482Z,65.20
2017-08-10T03:02:51.906Z,65.20
2017-08-10T03:05:23.066Z,66.00
2017-08-10T03:07:53.562Z,66.00
2017-08-10T03:10:24.116Z,65.40
2017-08-10T03:12:54.729Z,65.50
2017-08-10T03:15:25.325Z,64.80
2017-08-10T03:17:56.546Z,64.20
2017-08-10T03:20:27.019Z,64.20
2017-08-10T03:22:57.658Z,63.60
2017-08-10T03:25:28.214Z,63.00
2017-08-10T03:27:58.687Z,61.60
2017-08-10T03:30:28.981Z,60.60
2017-08-10T03:32:59.305Z,61.10
2017-08-10T03:35:29.958Z,59.30
2017-08-10T03:38:02.025Z,57.50
2017-08-10T03:40:32.610Z,57.40
2017-08-10T03:43:03.173Z,58.60
2017-08-10T03:45:33.694Z,58.40
2017-08-10T03:48:04.742Z,58.80
2017-08-10T03:50:35.158Z,58.30
2017-08-10T03:53:05.584Z,58.60
2017-08-10T03:55:36.126Z,58.50
2017-08-10T03:58:07.540Z,59.90
2017-08-10T04:00:38.057Z,60.50
2017-08-10T04:03:09.181Z,58.90
2017-08-10T04:05:39.887Z,58.80
2017-08-10T04:08:10.522Z,57.40
2017-08-10T04:10:41.153Z,58.20
2017-08-10T04:13:11.580Z,59.10
2017-08-10T04:15:42.059Z,58.80
2017-08-10T04:18:13.389Z,61.30
2017-08-10T04:20:43.894Z,60.70
2017-08-10T04:23:14.429Z,60.20
2017-08-10T04:25:44.809Z,58.60
2017-08-10T04:28:15.864Z,58.40
2017-08-10T04:30:46.416Z,58.30
2017-08-10T04:33:16.946Z,57.60
2017-08-10T04:35:47.465Z,59.10
2017-08-10T04:38:18.068Z,58.40
2017-08-10T04:40:49.186Z,57.40
2017-08-10T04:43:19.656Z,57.40
2017-08-10T04:45:50.013Z,56.80
2017-08-10T04:48:20.510Z,56.70
2017-08-10T04:50:51.111Z,56.50
2017-08-10T04:53:21.678Z,56.80
2017-08-10T04:55:53.283Z,56.30
2017-08-10T04:58:23.907Z,56.30
2017-08-10T05:00:54.314Z,56.80
2017-08-10T05:03:24.803Z,56.30
2017-08-10T05:05:55.361Z,55.00
2017-08-10T05:08:25.979Z,54.60
2017-08-10T05:10:57.299Z,55.40
2017-08-10T05:13:27.668Z,55.40
2017-08-10T05:15:57.989Z,54.70
2017-08-10T05:18:28.585Z,54.70
2017-08-10T05:20:59.179Z,55.70
2017-08-10T05:23:29.621Z,55.20
2017-08-10T05:25:59.951Z,55.00
2017-08-10T05:28:30.552Z,54.40
2017-08-10T05:31:01.025Z,56.30
2017-08-10T05:33:31.506Z,56.40
2017-08-10T05:36:03.086Z,56.40
2017-08-10T05:38:33.679Z,55.10
2017-08-10T05:41:04.896Z,55.20
2017-08-10T05:43:36.170Z,55.20
2017-08-10T05:46:07.556Z,55.70
2017-08-10T05:48:38.303Z,55.70
2017-08-10T05:51:08.963Z,56.90
2017-08-10T05:53:39.532Z,56.90
2017-08-10T05:56:10.680Z,56.10
2017-08-10T05:58:41.809Z,56.40
2017-08-10T06:01:12.070Z,56.40
2017-08-10T06:03:42.688Z,57.40
2017-08-10T06:06:13.121Z,58.30
2017-08-10T06:08:43.744Z,59.50
2017-08-10T06:11:14.239Z,59.70
2017-08-10T06:13:44.850Z,59.50
2017-08-10T06:16:15.341Z,58.50
2017-08-10T06:18:45.771Z,57.50
2017-08-10T06:21:16.338Z,57.30
2017-08-10T06:23:46.789Z,57.60
2017-08-10T06:26:17.198Z,58.30
2017-08-10T06:28:47.663Z,57.80
2017-08-10T06:31:18.116Z,57.40
2017-08-10T06:33:48.751Z,57.70
2017-08-10T06:36:19.371Z,56.90
2017-08-10T06:38:50.572Z,55.70
2017-08-10T06:41:21.110Z,55.70
2017-08-10T06:43:51.509Z,54.50
2017-08-10T06:46:21.958Z,55.70
2017-08-10T06:48:52.825Z,56.30
2017-08-10T06:51:23.306Z,55.30
2017-08-10T06:53:53.922Z,56.20
2017-08-10T06:56:24.540Z,55.90
2017-08-10T06:58:56.125Z,55.10
2017-08-10T07:01:26.882Z,55.00
2017-08-10T07:03:57.418Z,55.00
2017-08-10T07:06:27.863Z,54.20
2017-08-10T07:08:58.366Z,55.00
2017-08-10T07:11:28.949Z,55.60
2017-08-10T07:14:00.206Z,57.00
2017-08-10T07:16:31.431Z,56.70
2017-08-10T07:19:01.983Z,56.60
2017-08-10T07:21:33.380Z,56.40
2017-08-10T07:24:03.805Z,56.30
2017-08-10T07:26:34.298Z,56.00
2017-08-10T07:29:05.471Z,55.90
2017-08-10T07:31:35.915Z,55.80
2017-08-10T07:34:06.435Z,56.00
2017-08-10T07:36:36.938Z,56.70
2017-08-10T07:39:07.519Z,56.70
2017-08-10T07:41:38.093Z,57.00
2017-08-10T07:44:09.280Z,56.90
2017-08-10T07:46:39.806Z,56.90
2017-08-10T07:49:10.412Z,54.50
2017-08-10T07:51:41.054Z,54.40
2017-08-10T07:54:11.566Z,54.30
2017-08-10T07:56:42.743Z,54.20
2017-08-10T07:59:13.176Z,54.10
2017-08-10T08:01:43.672Z,54.30
2017-08-10T08:04:15.051Z,53.10
2017-08-10T08:06:45.483Z,52.50
2017-08-10T08:09:15.886Z,52.60
2017-08-10T08:11:47.172Z,52.80
2017-08-10T08:14:17.475Z,52.70
2017-08-10T08:16:47.981Z,53.00
2017-08-10T08:19:19.136Z,53.30
2017-08-10T08:21:53.448Z,53.80
2017-08-10T08:24:24.676Z,54.60
2017-08-10T08:26:55.341Z,54.50
2017-08-10T08:29:25.958Z,55.20
2017-08-10T08:31:57.158Z,55.10
2017-08-10T08:34:27.631Z,55.00
2017-08-10T08:36:59.033Z,55.20
2017-08-10T08:39:29.421Z,54.50
2017-08-10T08:42:00.800Z,54.40
2017-08-10T08:44:31.262Z,54.30
2017-08-10T08:47:01.691Z,54.30
2017-08-10T08:49:32.601Z,54.20
2017-08-10T08:52:03.547Z,54.90
2017-08-10T08:54:36.949Z,55.20
2017-08-10T08:57:07.163Z,55.00
2017-08-10T08:59:37.814Z,55.80
2017-08-10T09:02:08.133Z,55.80
2017-08-10T09:04:38.610Z,56.40
2017-08-10T09:07:08.904Z,56.50
2017-08-10T09:09:40.298Z,56.40
2017-08-10T09:12:11.431Z,56.10
2017-08-10T09:14:41.896Z,56.10
2017-08-10T09:17:12.307Z,57.00
2017-08-10T09:19:42.912Z,56.50
2017-08-10T09:22:13.496Z,56.20
2017-08-10T09:24:44.005Z,56.50
2017-08-10T09:27:14.666Z,56.20
2017-08-10T09:29:45.302Z,55.90
2017-08-10T09:32:15.928Z,55.00
2017-08-10T09:34:47.247Z,55.20
2017-08-10T09:37:18.510Z,57.50
2017-08-10T09:39:49.161Z,57.40
2017-08-10T09:42:19.476Z,58.60
2017-08-10T09:44:50.008Z,59.50
2017-08-10T09:47:20.572Z,59.90
2017-08-10T09:49:51.261Z,60.00
2017-08-10T09:52:21.784Z,61.20
2017-08-10T09:54:52.311Z,61.70
2017-08-10T09:57:23.606Z,61.80
2017-08-10T09:59:54.032Z,61.80
2017-08-10T10:02:24.430Z,62.30
2017-08-10T10:04:55.017Z,62.60
2017-08-10T10:07:25.622Z,62.10
2017-08-10T10:09:56.253Z,62.20
2017-08-10T10:12:26.875Z,62.60
2017-08-10T10:14:57.287Z,62.10
2017-08-10T10:17:27.738Z,62.00
2017-08-10T10:19:58.257Z,62.70
2017-08-10T10:22:28.818Z,63.20
2017-08-10T10:24:59.198Z,63.50
2017-08-10T10:27:29.732Z,63.40
2017-08-10T10:30:00.265Z,63.90
2017-08-10T10:32:30.909Z,64.10
2017-08-10T10:35:01.426Z,64.20
2017-08-10T10:37:32.070Z,64.90
2017-08-10T10:40:02.643Z,64.50
2017-08-10T10:42:33.247Z,64.90
2017-08-10T10:45:03.889Z,64.70
2017-08-10T10:47:34.358Z,65.10
2017-08-10T10:50:04.616Z,65.70
2017-08-10T10:52:35.108Z,66.20
2017-08-10T10:55:05.568Z,65.60
2017-08-10T10:57:36.104Z,66.00
2017-08-10T11:00:06.553Z,65.80
2017-08-10T11:02:37.197Z,66.00
2017-08-10T11:05:07.820Z,66.00
2017-08-10T11:07:38.446Z,66.50
2017-08-10T11:10:08.911Z,66.70
2017-08-10T11:12:39.295Z,67.10
2017-08-10T11:15:10.630Z,67.60
2017-08-10T11:17:41.810Z,67.80
2017-08-10T11:20:12.416Z,67.80
2017-08-10T11:22:42.998Z,68.20
2017-08-10T11:25:13.460Z,68.50
2017-08-10T11:27:44.783Z,69.30
2017-08-10T11:30:15.206Z,68.60
2017-08-10T11:32:45.812Z,68.30
2017-08-10T11:35:16.419Z,68.30
2017-08-10T11:37:47.704Z,68.50
2017-08-10T11:40:18.085Z,68.50
2017-08-10T11:42:49.379Z,69.00
2017-08-10T11:45:19.775Z,69.00
2017-08-10T11:50:27.699Z,69.20
2017-08-10T11:52:58.088Z,69.10
2017-08-10T11:55:28.593Z,69.20
2017-08-10T11:57:58.803Z,69.10
2017-08-10T12:00:29.332Z,69.50
2017-08-10T12:02:59.700Z,70.00
2017-08-10T12:05:30.174Z,71.10
2017-08-10T12:08:00.629Z,71.50
2017-08-10T12:10:30.972Z,73.50
2017-08-10T12:13:01.561Z,75.00
2017-08-10T12:15:32.183Z,75.70
2017-08-10T12:18:02.446Z,75.20
2017-08-10T12:20:32.989Z,75.30
2017-08-10T12:23:03.561Z,76.90
2017-08-10T12:25:34.676Z,74.10
2017-08-10T12:28:05.291Z,74.10
2017-08-10T12:30:35.752Z,74.50
2017-08-10T12:33:06.262Z,74.40
2017-08-10T12:35:36.733Z,74.60
2017-08-10T12:38:08.129Z,73.00
2017-08-10T12:40:39.564Z,73.00
2017-08-10T12:45:46.154Z,73.90
2017-08-10T12:48:16.576Z,73.80
2017-08-10T12:50:47.385Z,75.00
2017-08-10T12:53:18.683Z,75.70
2017-08-10T12:55:49.067Z,74.90
2017-08-10T12:58:19.495Z,74.70
2017-08-10T13:00:50.462Z,75.50
2017-08-10T13:03:20.927Z,75.30
2017-08-10T13:05:51.406Z,76.60
2017-08-10T13:08:21.998Z,78.30
2017-08-10T13:10:52.567Z,78.60
2017-08-10T13:13:23.403Z,79.80
2017-08-10T13:15:54.036Z,80.10
2017-08-10T13:18:25.185Z,81.60
2017-08-10T13:20:55.550Z,81.50
2017-08-10T13:23:27.609Z,80.20
2017-08-10T13:25:58.003Z,78.40
2017-08-10T13:28:29.274Z,81.60
2017-08-10T13:30:59.806Z,81.60
2017-08-10T13:33:30.332Z,80.90
2017-08-10T13:36:00.799Z,79.80
2017-08-10T13:38:31.326Z,81.80
2017-08-10T13:41:01.695Z,83.30
2017-08-10T13:43:32.857Z,81.80
2017-08-10T13:46:03.448Z,81.80
2017-08-10T13:48:33.999Z,82.90
2017-08-10T13:51:04.739Z,82.50
2017-08-10T13:53:35.282Z,83.50
2017-08-10T13:56:05.870Z,83.80
2017-08-10T13:58:36.389Z,84.50
2017-08-10T14:01:06.909Z,84.70
2017-08-10T14:03:38.232Z,87.40
2017-08-10T14:06:08.679Z,87.30
2017-08-10T14:08:39.257Z,85.50
2017-08-10T14:11:15.979Z,85.70
2017-08-10T14:13:46.878Z,86.70
2017-08-10T14:16:18.922Z,87.70
2017-08-10T14:18:49.621Z,87.60
2017-08-10T14:21:20.159Z,87.80
2017-08-10T14:23:50.677Z,88.40
2017-08-10T14:26:21.260Z,89.10
2017-08-10T14:28:52.660Z,88.40
2017-08-10T14:31:23.455Z,88.30
2017-08-10T14:33:54.668Z,88.20
2017-08-10T14:36:25.979Z,88.10
2017-08-10T14:38:57.474Z,88.30
2017-08-10T14:41:28.501Z,88.90
2017-08-10T14:43:59.113Z,88.20
2017-08-10T14:46:29.737Z,88.70
2017-08-10T14:49:00.263Z,88.60
2017-08-10T14:51:31.047Z,88.60
2017-08-10T14:54:01.519Z,88.80
2017-08-10T14:56:32.034Z,88.90
2017-08-10T14:59:02.498Z,89.20
2017-08-10T15:01:32.879Z,89.20
2017-08-10T15:04:03.402Z,89.50
2017-08-10T15:06:33.852Z,89.50
2017-08-10T15:09:04.355Z,89.70
2017-08-10T15:11:34.868Z,90.10
2017-08-10T15:14:05.313Z,88.90
2017-08-10T15:16:35.710Z,88.50
2017-08-10T15:19:06.290Z,88.50
2017-08-10T15:21:36.834Z,89.30
2017-08-10T15:24:07.363Z,87.70
2017-08-10T15:26:38.069Z,87.80
2017-08-10T15:29:08.784Z,87.20
2017-08-10T15:31:39.337Z,87.00
2017-08-10T15:34:09.927Z,86.80
2017-08-10T15:36:40.430Z,86.70
2017-08-10T15:39:10.933Z,87.10
2017-08-10T15:41:41.288Z,87.60
2017-08-10T15:44:11.752Z,88.00
2017-08-10T15:46:42.293Z,87.50
2017-08-10T15:49:12.715Z,88.30
2017-08-10T15:51:44.608Z,88.50
2017-08-10T15:54:15.124Z,88.60
2017-08-10T15:56:45.915Z,87.50
2017-08-10T15:59:16.374Z,87.30
2017-08-10T16:01:46.904Z,87.50
2017-08-10T16:04:18.362Z,86.50
2017-08-10T16:06:48.940Z,85.70
2017-08-10T16:09:19.510Z,85.30
2017-08-10T16:11:50.859Z,85.20
2017-08-10T16:14:22.052Z,85.30
2017-08-10T16:16:52.483Z,85.20
2017-08-10T16:19:22.906Z,85.40
2017-08-10T16:21:54.122Z,84.20
2017-08-10T16:24:24.680Z,84.10
2017-08-10T16:26:55.186Z,84.80
2017-08-10T16:29:25.775Z,84.70
2017-08-10T16:31:56.347Z,84.80
2017-08-10T16:34:26.907Z,85.50
2017-08-10T16:36:57.504Z,85.90
2017-08-10T16:39:28.153Z,85.30
2017-08-10T16:41:58.771Z,86.30
2017-08-10T16:44:29.400Z,86.20
2017-08-10T16:47:00.601Z,86.50
2017-08-10T16:49:31.102Z,86.50
2017-08-10T16:52:01.815Z,86.30
2017-08-10T16:54:32.388Z,86.20
2017-08-10T16:57:02.789Z,87.10
2017-08-10T16:59:33.318Z,86.50
2017-08-10T17:02:03.855Z,85.80
2017-08-10T17:04:34.447Z,86.10
2017-08-10T17:07:04.700Z,86.70
2017-08-10T17:09:35.461Z,86.30
2017-08-10T17:12:05.781Z,86.40
2017-08-10T17:14:36.242Z,86.70
2017-08-10T17:17:06.605Z,86.90
2017-08-10T17:19:37.783Z,86.60
2017-08-10T17:22:08.088Z,86.60
2017-08-10T17:24:38.622Z,86.80
2017-08-10T17:27:09.553Z,86.10
2017-08-10T17:29:40.934Z,85.30
2017-08-10T17:32:11.274Z,85.30
2017-08-10T17:34:41.770Z,85.40
2017-08-10T17:37:12.392Z,86.00
2017-08-10T17:39:43.991Z,87.80
2017-08-10T17:42:14.650Z,87.70
2017-08-10T17:44:45.144Z,88.10
2017-08-10T17:47:15.609Z,87.80
2017-08-10T17:49:46.840Z,87.80
2017-08-10T17:52:17.629Z,88.00
2017-08-10T17:54:48.263Z,88.30
2017-08-10T17:57:18.883Z,88.40
2017-08-10T17:59:50.192Z,88.00
2017-08-10T18:02:20.707Z,88.00
2017-08-10T18:04:51.254Z,86.20
2017-08-10T18:07:21.738Z,86.00
2017-08-10T18:09:52.340Z,86.60
2017-08-10T18:12:22.923Z,87.00
2017-08-10T18:14:53.556Z,86.80
2017-08-10T18:17:24.002Z,86.90
2017-08-10T18:19:54.529Z,87.00
2017-08-10T18:22:25.026Z,87.40
2017-08-10T18:24:55.485Z,86.70
2017-08-10T18:27:25.899Z,86.60
2017-08-10T18:29:56.441Z,86.80
2017-08-10T18:32:26.825Z,86.80
2017-08-10T18:34:57.486Z,86.60
2017-08-10T18:37:28.064Z,87.00
2017-08-10T18:39:58.639Z,87.10
2017-08-10T18:42:29.899Z,87.10
2017-08-10T18:45:00.412Z,87.00
2017-08-10T18:47:31.662Z,87.80
2017-08-10T18:50:03.024Z,87.60
2017-08-10T18:52:33.946Z,87.50
2017-08-10T18:55:05.251Z,87.20
2017-08-10T18:57:35.714Z,87.20
2017-08-10T19:00:06.266Z,87.00
2017-08-10T19:02:38.625Z,86.60
2017-08-10T19:05:09.226Z,86.90
2017-08-10T19:07:39.710Z,86.70
2017-08-10T19:10:10.335Z,87.20
2017-08-10T19:12:40.960Z,86.70
2017-08-10T19:15:12.236Z,87.50
2017-08-10T19:17:42.647Z,87.40
2017-08-10T19:20:13.073Z,86.60
2017-08-10T19:22:43.669Z,85.70
2017-08-10T19:25:14.138Z,85.70
2017-08-10T19:27:44.778Z,85.80
2017-08-10T19:30:15.423Z,86.00
2017-08-10T19:32:46.018Z,85.70
2017-08-10T19:35:16.681Z,86.30
2017-08-10T19:37:47.289Z,87.10
2017-08-10T19:40:17.662Z,87.70
2017-08-10T19:42:48.263Z,87.70
2017-08-10T19:45:18.714Z,87.50
2017-08-10T19:47:49.167Z,87.10
2017-08-10T19:50:19.756Z,87.20
2017-08-10T19:52:50.677Z,87.80
2017-08-10T19:55:21.282Z,87.70
2017-08-10T19:57:51.833Z,87.80
2017-08-10T20:00:22.473Z,88.20
2017-08-10T20:02:53.107Z,88.40
2017-08-10T20:05:23.774Z,88.30
2017-08-10T20:07:54.430Z,88.20
2017-08-10T20:10:25.051Z,88.80
2017-08-10T20:12:55.697Z,88.40
2017-08-10T20:15:26.315Z,88.00
2017-08-10T20:17:56.957Z,88.30
2017-08-10T20:20:27.342Z,88.80
2017-08-10T20:22:57.884Z,88.70
2017-08-10T20:25:28.337Z,88.80
2017-08-10T20:27:58.627Z,88.70
2017-08-10T20:30:29.253Z,88.30
2017-08-10T20:32:59.874Z,88.50
2017-08-10T20:35:30.373Z,89.20
2017-08-10T20:38:00.749Z,89.40
2017-08-10T20:40:31.253Z,89.10
2017-08-10T20:43:01.668Z,89.10
2017-08-10T20:45:32.159Z,88.80
2017-08-10T20:48:02.537Z,88.70
2017-08-10T20:50:32.890Z,88.60
2017-08-10T20:53:04.557Z,89.10
2017-08-10T20:55:35.949Z,89.00
2017-08-10T20:58:06.339Z,88.80
2017-08-10T21:00:36.830Z,88.30
2017-08-10T21:03:07.423Z,88.40
2017-08-10T21:05:37.858Z,88.60
2017-08-10T21:08:08.466Z,87.60
2017-08-10T21:10:39.022Z,87.20
2017-08-10T21:13:09.582Z,86.50
2017-08-10T21:15:40.174Z,85.50
2017-08-10T21:18:10.776Z,85.20
2017-08-10T21:20:41.447Z,85.80
2017-08-10T21:23:11.903Z,87.00
2017-08-10T21:25:42.410Z,87.30
2017-08-10T21:28:12.948Z,87.70
2017-08-10T21:30:43.501Z,87.20
2017-08-10T21:33:13.862Z,87.50
2017-08-10T21:35:44.511Z,87.50
2017-08-10T21:38:15.038Z,87.20
2017-08-10T21:40:46.231Z,87.00
2017-08-10T21:43:16.734Z,86.80
2017-08-10T21:45:47.284Z,87.20
2017-08-10T21:48:17.859Z,87.90
2017-08-10T21:50:48.401Z,87.70
2017-08-10T21:53:20.209Z,88.60
2017-08-10T21:55:50.685Z,88.60
2017-08-10T21:58:22.141Z,87.80
2017-08-10T22:00:52.810Z,87.20
2017-08-10T22:03:23.319Z,87.60
2017-08-10T22:05:53.958Z,88.00
2017-08-10T22:08:24.571Z,87.00
2017-08-10T22:10:55.140Z,86.90
2017-08-10T22:13:25.690Z,87.50
2017-08-10T22:15:56.414Z,87.90
2017-08-10T22:18:26.733Z,87.80
2017-08-10T22:20:57.181Z,87.30
2017-08-10T22:23:27.551Z,87.20
2017-08-10T22:25:58.825Z,87.60
2017-08-10T22:28:29.349Z,86.90
2017-08-10T22:30:59.903Z,86.80
2017-08-10T22:33:30.445Z,86.80
2017-08-10T22:36:00.898Z,87.20
2017-08-10T22:38:31.505Z,87.80
2017-08-10T22:41:01.993Z,88.10
2017-08-10T22:43:32.529Z,87.90
2017-08-10T22:46:03.149Z,88.10
2017-08-10T22:48:33.757Z,88.10
2017-08-10T22:51:04.313Z,87.50
2017-08-10T22:53:35.277Z,87.60
2017-08-10T22:56:05.909Z,87.70
2017-08-10T22:58:36.526Z,87.60
2017-08-10T23:01:07.181Z,87.70
2017-08-10T23:03:37.802Z,87.70
2017-08-10T23:06:08.323Z,87.40
2017-08-10T23:08:38.967Z,86.80
2017-08-10T23:11:09.486Z,87.50
2017-08-10T23:13:40.090Z,88.10
2017-08-10T23:16:10.623Z,87.60
2017-08-10T23:18:41.219Z,88.00
2017-08-10T23:21:11.862Z,88.20
2017-08-10T23:23:42.289Z,88.00
2017-08-10T23:26:12.834Z,88.00
2017-08-10T23:28:43.417Z,87.90
2017-08-10T23:31:13.834Z,87.70
2017-08-10T23:33:44.436Z,87.70
2017-08-10T23:36:14.835Z,87.90
2017-08-10T23:38:45.347Z,88.30
2017-08-10T23:41:15.917Z,88.20
2017-08-10T23:43:46.324Z,88.50
2017-08-10T23:46:16.911Z,88.20
2017-08-10T23:48:47.478Z,87.80
2017-08-10T23:51:18.222Z,88.40
2017-08-10T23:53:49.363Z,87.90
2017-08-10T23:56:19.916Z,86.50
2017-08-10T23:58:50.327Z,86.30
